< < Back
Terminal Aerodrome Forecast


Current Version              Previous Versions:   1  2  3  4  5  6  7  8  9  

Terminal Aerodrome Forecast

105
FTUS44 KBMX 301136
TAFMGM
TAF
KMGM 301136Z 3012/0112 27005KT P6SM SCT100
     FM301700 29005KT P6SM VCTS BKN050CB
     FM010000 18005KT P6SM SCT050=

Latest METAR

635
SAUS80 KWBC 301200 RRE
MTRMGM
METAR KMGM 301153Z 35003KT 10SM CLR 25/22 A2997 RMK AO2 SLP146 60001
70001 T02500217 10250 20228 51013


USA.gov is the U.S. government's official web portal to all federal, state and local government web resources and services.